createdAt,value
2023-01-12T00:00:18.617Z,82.483333
2023-01-12T00:05:18.271Z,82.341667
2023-01-12T00:10:18.274Z,81.775000
2023-01-12T00:15:18.567Z,81.100000
2023-01-12T00:20:18.170Z,80.425000
2023-01-12T00:25:18.340Z,79.870833
2023-01-12T00:30:18.392Z,79.700000
2023-01-12T00:35:18.226Z,79.495833
2023-01-12T00:40:18.384Z,79.479167
2023-01-12T00:45:18.264Z,79.466667
2023-01-12T00:50:19.606Z,79.366667
2023-01-12T00:55:18.136Z,79.345833
2023-01-12T01:00:18.333Z,79.325000
2023-01-12T01:05:18.252Z,79.244000
2023-01-12T01:10:18.303Z,79.070833
2023-01-12T01:15:18.749Z,78.908333
2023-01-12T01:20:18.271Z,78.750000
2023-01-12T01:25:18.523Z,78.637500
2023-01-12T01:30:18.823Z,78.337500
2023-01-12T01:35:18.377Z,77.970833
2023-01-12T01:40:18.288Z,77.725000
2023-01-12T01:45:18.314Z,77.754167
2023-01-12T01:50:18.216Z,77.712500
2023-01-12T01:55:18.393Z,77.483333
2023-01-12T02:00:18.333Z,77.250000
2023-01-12T02:05:18.462Z,77.154167
2023-01-12T02:10:18.416Z,77.129167
2023-01-12T02:15:18.506Z,77.150000
2023-01-12T02:20:18.220Z,77.200000
2023-01-12T02:25:18.235Z,77.304167
2023-01-12T02:30:18.414Z,77.483333
2023-01-12T02:35:18.146Z,77.645833
2023-01-12T02:45:18.658Z,77.741667
2023-01-12T02:50:18.190Z,77.744000
2023-01-12T02:55:18.135Z,77.625000
2023-01-12T03:00:18.342Z,77.429167
2023-01-12T03:05:18.478Z,77.250000
2023-01-12T03:10:18.235Z,77.220833
2023-01-12T03:15:18.762Z,76.987500
2023-01-12T03:20:18.772Z,76.733333
2023-01-12T03:25:18.125Z,76.541667
2023-01-12T03:30:18.583Z,76.404167
2023-01-12T03:35:18.291Z,76.187500
2023-01-12T03:40:18.293Z,76.016667
2023-01-12T03:45:18.194Z,75.629167
2023-01-12T03:50:18.171Z,75.466667
2023-01-12T03:55:18.196Z,75.375000
2023-01-12T04:00:18.615Z,75.325000
2023-01-12T04:05:18.401Z,75.170833
2023-01-12T04:10:18.280Z,74.933333
2023-01-12T04:15:18.338Z,74.866667
2023-01-12T04:20:18.450Z,74.866667
2023-01-12T04:25:18.504Z,74.933333
2023-01-12T04:30:18.395Z,74.925000
2023-01-12T04:35:18.187Z,74.962500
2023-01-12T04:40:18.174Z,74.987500
2023-01-12T04:45:18.253Z,75.033333
2023-01-12T04:50:18.148Z,75.000000
2023-01-12T04:55:18.412Z,75.091667
2023-01-12T05:00:18.243Z,75.120833
2023-01-12T05:05:18.388Z,75.166667
2023-01-12T05:10:18.413Z,75.166667
2023-01-12T05:15:18.822Z,75.137500
2023-01-12T05:20:18.224Z,75.100000
2023-01-12T05:25:18.424Z,75.037500
2023-01-12T05:30:18.547Z,74.950000
2023-01-12T05:35:18.300Z,74.966667
2023-01-12T05:40:18.308Z,74.941667
2023-01-12T05:45:18.514Z,74.900000
2023-01-12T05:50:18.367Z,75.020833
2023-01-12T05:55:18.427Z,75.116667
2023-01-12T06:00:18.190Z,74.962500
2023-01-12T06:05:18.249Z,75.070833
2023-01-12T06:10:18.334Z,75.208000
2023-01-12T06:15:18.336Z,75.300000
2023-01-12T06:20:18.384Z,75.358333
2023-01-12T06:25:18.236Z,75.483333
2023-01-12T06:30:18.329Z,75.400000
2023-01-12T06:35:19.861Z,75.450000
2023-01-12T06:40:18.246Z,75.483333
2023-01-12T06:45:18.321Z,75.591667
2023-01-12T06:50:18.350Z,75.708333
2023-01-12T06:55:18.276Z,75.645833
2023-01-12T07:00:18.252Z,75.666667
2023-01-12T07:05:18.429Z,75.700000
2023-01-12T07:10:18.506Z,75.700000
2023-01-12T07:15:19.122Z,75.725000
2023-01-12T07:20:18.688Z,75.875000
2023-01-12T07:25:18.402Z,75.900000
2023-01-12T07:30:18.358Z,75.900000
2023-01-12T07:35:23.403Z,75.900000
2023-01-12T07:40:18.681Z,75.850000
2023-01-12T07:45:18.298Z,75.641667
2023-01-12T07:50:18.266Z,75.425000
2023-01-12T07:55:18.408Z,75.416667
2023-01-12T08:00:18.372Z,75.508333
2023-01-12T08:05:18.274Z,75.562500
2023-01-12T08:10:18.277Z,75.550000
2023-01-12T08:15:18.500Z,75.416667
2023-01-12T08:20:18.296Z,75.208333
2023-01-12T08:25:18.202Z,74.900000
2023-01-12T08:30:18.234Z,74.725000
2023-01-12T08:35:18.298Z,74.587500
2023-01-12T08:40:18.546Z,74.616667
2023-01-12T08:45:18.285Z,74.550000
2023-01-12T08:50:18.505Z,74.316667
2023-01-12T08:55:18.286Z,73.970833
2023-01-12T09:00:18.673Z,73.783333
2023-01-12T09:05:18.619Z,73.666667
2023-01-12T09:10:18.382Z,73.587500
2023-01-12T09:15:18.365Z,73.487500
2023-01-12T09:20:17.263Z,73.388889
2023-01-12T09:25:17.711Z,73.358333
2023-01-12T09:30:17.306Z,73.179167
2023-01-12T09:35:17.290Z,73.016667
2023-01-12T09:40:17.342Z,72.662500
2023-01-12T09:45:17.210Z,72.441667
2023-01-12T09:50:17.229Z,72.300000
2023-01-12T09:55:17.625Z,72.250000
2023-01-12T10:00:17.395Z,72.070833
2023-01-12T10:05:17.383Z,71.983333
2023-01-12T10:10:17.393Z,71.875000
2023-01-12T10:15:17.457Z,71.625000
2023-01-12T10:20:18.308Z,71.558333
2023-01-12T10:25:17.431Z,71.504167
2023-01-12T10:30:17.555Z,71.584000
2023-01-12T10:35:17.316Z,71.395833
2023-01-12T10:40:17.614Z,71.520833
2023-01-12T10:45:17.837Z,71.712500
2023-01-12T10:50:17.661Z,71.691667
2023-01-12T10:55:17.978Z,71.520833
2023-01-12T11:00:17.463Z,71.320833
2023-01-12T11:05:17.450Z,71.679167
2023-01-12T11:10:19.213Z,72.037500
2023-01-12T11:15:17.474Z,72.050000
2023-01-12T11:20:17.249Z,71.908333
2023-01-12T11:25:17.263Z,71.958333
2023-01-12T11:30:17.614Z,72.058333
2023-01-12T11:35:17.338Z,72.733333
2023-01-12T11:40:17.442Z,74.158333
2023-01-12T11:45:17.320Z,75.795833
2023-01-12T11:50:17.448Z,76.954167
2023-01-12T11:55:17.494Z,77.900000
2023-01-12T12:00:17.419Z,78.412500
2023-01-12T12:05:17.307Z,79.150000
2023-01-12T12:10:17.332Z,79.450000
2023-01-12T12:15:17.407Z,80.050000
2023-01-12T12:20:17.586Z,80.375000
2023-01-12T12:25:17.435Z,80.625000
2023-01-12T12:30:18.204Z,80.879167
2023-01-12T12:35:17.696Z,81.054167
2023-01-12T12:40:17.337Z,81.554167
2023-01-12T12:45:17.453Z,81.772000
2023-01-12T12:50:17.373Z,82.079167
2023-01-12T12:55:17.272Z,82.283333
2023-01-12T13:00:17.347Z,82.258333
2023-01-12T13:05:17.243Z,82.204167
2023-01-12T13:10:17.334Z,82.300000
2023-01-12T13:15:17.692Z,82.250000
2023-01-12T13:20:25.707Z,82.250000
2023-01-12T13:25:17.336Z,82.254167
2023-01-12T13:30:19.097Z,82.125000
2023-01-12T13:35:17.187Z,81.883333
2023-01-12T13:40:17.400Z,81.712500
2023-01-12T13:45:17.687Z,81.875000
2023-01-12T13:50:17.645Z,82.116667
2023-01-12T13:55:17.217Z,82.483333
2023-01-12T14:00:17.342Z,82.664000
2023-01-12T14:05:17.195Z,82.529167
2023-01-12T14:10:19.148Z,82.316667
2023-01-12T14:15:17.355Z,82.129167
2023-01-12T14:20:17.203Z,82.029167
2023-01-12T14:25:17.256Z,81.833333
2023-01-12T14:30:17.231Z,81.783333
2023-01-12T14:35:17.371Z,81.845833
2023-01-12T14:40:17.489Z,81.992308
2023-01-12T14:45:17.156Z,82.058333
2023-01-12T14:50:17.333Z,82.095833
2023-01-12T14:55:17.140Z,81.962500
2023-01-12T15:00:17.427Z,81.900000
2023-01-12T15:05:17.581Z,81.916000
2023-01-12T15:10:17.479Z,81.808333
2023-01-12T15:15:17.611Z,81.700000
2023-01-12T15:20:17.773Z,81.600000
2023-01-12T15:25:17.331Z,81.325000
2023-01-12T15:30:17.269Z,81.250000
2023-01-12T15:35:17.231Z,81.200000
2023-01-12T15:40:17.845Z,81.016667
2023-01-12T15:45:17.329Z,81.066667
2023-01-12T15:50:17.342Z,81.066667
2023-01-12T15:55:17.223Z,80.941667
2023-01-12T16:00:17.518Z,80.808333
2023-01-12T16:05:17.276Z,80.491667
2023-01-12T16:10:17.220Z,80.383333
2023-01-12T16:15:17.458Z,80.400000
2023-01-12T16:20:17.377Z,80.320833
2023-01-12T16:25:17.245Z,80.341667
2023-01-12T16:30:17.197Z,80.350000
2023-01-12T16:35:17.251Z,80.275000
2023-01-12T16:40:18.319Z,80.133333
2023-01-12T16:45:17.182Z,80.000000
2023-01-12T16:50:19.765Z,79.950000
2023-01-12T16:55:20.032Z,79.764000
2023-01-12T17:00:19.806Z,79.620833
2023-01-12T17:05:20.126Z,79.504167
2023-01-12T17:10:19.810Z,79.395833
2023-01-12T17:15:20.255Z,79.295833
2023-01-12T17:20:19.675Z,79.283333
2023-01-12T17:25:19.600Z,79.141667
2023-01-12T17:30:19.869Z,79.000000
2023-01-12T17:35:19.964Z,78.808333
2023-01-12T17:40:21.111Z,78.720833
2023-01-12T17:45:20.005Z,79.025000
2023-01-12T17:50:19.698Z,79.550000
2023-01-12T17:55:19.825Z,79.916667
2023-01-12T18:00:19.771Z,80.187500
2023-01-12T18:05:19.724Z,80.737500
2023-01-12T18:10:19.788Z,81.200000
2023-01-12T18:15:19.806Z,81.395833
2023-01-12T18:20:19.722Z,81.404000
2023-01-12T18:25:19.647Z,81.432000
2023-01-12T18:30:19.854Z,81.333333
2023-01-12T18:35:19.733Z,81.158333
2023-01-12T18:40:19.746Z,80.875000
2023-01-12T18:45:19.757Z,80.462500
2023-01-12T18:50:19.969Z,80.120833
2023-01-12T18:55:19.705Z,79.991667
2023-01-12T19:00:19.694Z,79.716667
2023-01-12T19:05:19.747Z,79.450000
2023-01-12T19:10:19.995Z,79.400000
2023-01-12T19:15:19.720Z,79.570833
2023-01-12T19:20:19.704Z,80.033333
2023-01-12T19:25:20.127Z,80.358333
2023-01-12T19:30:19.603Z,80.470833
2023-01-12T19:35:20.143Z,80.883333
2023-01-12T19:40:19.738Z,81.408333
2023-01-12T19:45:19.596Z,81.595833
2023-01-12T19:50:19.784Z,81.741667
2023-01-12T19:55:19.658Z,81.841667
2023-01-12T20:00:19.618Z,81.958333
2023-01-12T20:05:17.108Z,82.258333
2023-01-12T20:10:17.105Z,82.583333
2023-01-12T20:15:17.456Z,82.732000
2023-01-12T20:20:17.117Z,82.754167
2023-01-12T20:25:17.402Z,82.541667
2023-01-12T20:30:25.353Z,82.083333
2023-01-12T20:35:17.035Z,81.645833
2023-01-12T20:40:17.416Z,81.633333
2023-01-12T20:45:17.398Z,81.370833
2023-01-12T20:50:17.062Z,80.854167
2023-01-12T20:55:17.162Z,80.470833
2023-01-12T21:00:17.294Z,80.283333
2023-01-12T21:05:17.079Z,79.912500
2023-01-12T21:10:17.097Z,79.629167
2023-01-12T21:15:17.490Z,79.516000
2023-01-12T21:20:17.566Z,79.475000
2023-01-12T21:25:17.106Z,79.736000
2023-01-12T21:30:17.451Z,79.975000
2023-01-12T21:35:17.215Z,80.150000
2023-01-12T21:40:17.231Z,80.054167
2023-01-12T21:45:17.069Z,79.883333
2023-01-12T21:50:17.163Z,79.600000
2023-01-12T21:55:17.190Z,79.354167
2023-01-12T22:00:17.288Z,79.266667
2023-01-12T22:05:17.464Z,79.033333
2023-01-12T22:10:17.060Z,78.924000
2023-01-12T22:15:17.313Z,78.808333
2023-01-12T22:20:17.297Z,78.700000
2023-01-12T22:25:17.081Z,78.433333
2023-01-12T22:30:17.121Z,78.236000
2023-01-12T22:35:17.393Z,78.158333
2023-01-12T22:40:17.137Z,77.966667
2023-01-12T22:45:17.052Z,77.800000
2023-01-12T22:50:17.165Z,77.800000
2023-01-12T22:55:17.150Z,77.833333
2023-01-12T23:00:17.463Z,78.000000
2023-01-12T23:05:17.395Z,78.145833
2023-01-12T23:10:20.073Z,78.320833
2023-01-12T23:15:19.740Z,78.420000
2023-01-12T23:20:19.983Z,78.383333
2023-01-12T23:25:20.217Z,78.416667
2023-01-12T23:30:19.534Z,78.416667
2023-01-12T23:35:19.575Z,78.300000
2023-01-12T23:40:19.639Z,78.245833
2023-01-12T23:45:19.648Z,78.408333
2023-01-12T23:50:19.635Z,78.758333
2023-01-12T23:55:19.649Z,79.050000
